Highspeed 7 — SYDM — position and weather

sailwx.info

Track history (hours):
 
Tides and Currents Weather Stations Pressure Air Temp Water Temp Dewpoint Dewpoint Depression Visibility Wind Speed Wind Dir Waves Ship Positions

Highspeed 7

Last reported at 2017-Apr-26 12:25 UTC. Time now 2017-Apr-27 11:10 UTC.
Position N 37°03' E 025°02'.

Length 87 m; draft 3.5 m.

Type: Ship. MMSI: 240348000.

Date/timePositionNaut miles runAvg speedWind from/ knotsBaromVisibWave heightAir tempDewpointWater temp
2017-Apr-26 12:25N 37°03' E 025°02'512.2
2017-Apr-26 11:59N 37°06' E 025°07'1836.8
2017-Apr-26 11:31N 37°22' E 025°17'612.1
2017-Apr-26 11:00N 37°28' E 025°18'2036.4
2017-Apr-26 10:27N 37°09' E 025°09'3 7.2
2017-Apr-26 10:00N 37°06' E 025°07'5 0.2
2017-Apr-25 12:33N 37°03' E 025°02'237.5
2017-Apr-25 12:31N 37°04' E 025°04'814.9
2017-Apr-25 11:59N 37°10' E 025°09'1837.3
2017-Apr-25 11:31N 37°27' E 025°18'1 2.7
2017-Apr-25 11:01N 37°25' E 025°17'1936.6
2017-Apr-25 10:29N 37°08' E 025°08'4 8.3
2017-Apr-25 10:01N 37°05' E 025°05'  
2017-Apr-21 13:00N 37°03' E 025°02'510.9
2017-Apr-21 12:30N 37°06' E 025°07'1938.4
2017-Apr-21 12:00N 37°24' E 025°17'5 9.0
2017-Apr-21 11:31N 37°28' E 025°19'1427.7
2017-Apr-21 11:01N 37°15' E 025°13'1017.4
2017-Apr-21 10:25N 37°05' E 025°08'5 0.1
2017-Apr-19 12:36N 37°03' E 025°02'335.6
2017-Apr-19 12:31N 37°05' E 025°05'610.8
2017-Apr-19 11:55N 37°10' E 025°10'1535.2
2017-Apr-19 11:31N 37°24' E 025°17'4 7.5
2017-Apr-19 11:01N 37°27' E 025°18'2137.2
2017-Apr-19 10:27N 37°08' E 025°08'2 5.2
2017-Apr-19 10:00N 37°06' E 025°07'5 0.2
2017-Apr-18 13:00N 37°03' E 025°02'511.1
2017-Apr-18 12:30N 37°06' E 025°07'1937.5
2017-Apr-18 12:00N 37°23' E 025°17'4 8.3
2017-Apr-18 11:31N 37°27' E 025°18'2036.0
2017-Apr-18 10:57N 37°08' E 025°08'3 5.7
2017-Apr-18 10:30N 37°06' E 025°07'  
Track history (hours):
 
Tides and Currents Weather Stations Pressure Air Temp Water Temp Dewpoint Dewpoint Depression Visibility Wind Speed Wind Dir Waves Ship Positions

Highspeed 7

Last reported at 2017-Apr-26 12:25 UTC. Time now 2017-Apr-27 11:10 UTC.
Position N 37°03' E 025°02'.

Length 87 m; draft 3.5 m.

Type: Ship. MMSI: 240348000.

Date/timePositionNaut miles runAvg speedWind from/ knotsBaromVisibWave heightAir tempDewpointWater temp
2017-Apr-26 12:25N 37°03' E 025°02'512.2
2017-Apr-26 11:59N 37°06' E 025°07'1836.8
2017-Apr-26 11:31N 37°22' E 025°17'612.1
2017-Apr-26 11:00N 37°28' E 025°18'2036.4
2017-Apr-26 10:27N 37°09' E 025°09'3 7.2
2017-Apr-26 10:00N 37°06' E 025°07'5 0.2
2017-Apr-25 12:33N 37°03' E 025°02'237.5
2017-Apr-25 12:31N 37°04' E 025°04'814.9
2017-Apr-25 11:59N 37°10' E 025°09'1837.3
2017-Apr-25 11:31N 37°27' E 025°18'1 2.7
2017-Apr-25 11:01N 37°25' E 025°17'1936.6
2017-Apr-25 10:29N 37°08' E 025°08'4 8.3
2017-Apr-25 10:01N 37°05' E 025°05'  
2017-Apr-21 13:00N 37°03' E 025°02'510.9
2017-Apr-21 12:30N 37°06' E 025°07'1938.4
2017-Apr-21 12:00N 37°24' E 025°17'5 9.0
2017-Apr-21 11:31N 37°28' E 025°19'1427.7
2017-Apr-21 11:01N 37°15' E 025°13'1017.4
2017-Apr-21 10:25N 37°05' E 025°08'5 0.1
2017-Apr-19 12:36N 37°03' E 025°02'335.6
2017-Apr-19 12:31N 37°05' E 025°05'610.8
2017-Apr-19 11:55N 37°10' E 025°10'1535.2
2017-Apr-19 11:31N 37°24' E 025°17'4 7.5
2017-Apr-19 11:01N 37°27' E 025°18'2137.2
2017-Apr-19 10:27N 37°08' E 025°08'2 5.2
2017-Apr-19 10:00N 37°06' E 025°07'5 0.2
2017-Apr-18 13:00N 37°03' E 025°02'511.1
2017-Apr-18 12:30N 37°06' E 025°07'1937.5
2017-Apr-18 12:00N 37°23' E 025°17'4 8.3
2017-Apr-18 11:31N 37°27' E 025°18'2036.0
2017-Apr-18 10:57N 37°08' E 025°08'3 5.7
2017-Apr-18 10:30N 37°06' E 025°07'  

Dump ship's entire track history